Time;durP1;ratioP1;P1;durP2;ratioP2;P2;SDS_P1;SDS_P2;PMS_P1;PMS_P2;Temp;Humidity;BMP_temperature;BMP_pressure;BME280_temperature;BME280_humidity;BME280_pressure;Samples;Min_cycle;Max_cycle;Signal;HPM_P1;HPM_P2
2022/05/31 00:01:19;;;;;;;3.10;0.98;;;;;;;;;;5014513;28;20037;-59
2022/05/31 00:03:45;;;;;;;1.17;0.80;;;;;;;;;;4996548;28;20415;-59
2022/05/31 00:06:11;;;;;;;0.90;0.70;;;;;;;;;;5012932;28;20018;-59
2022/05/31 00:08:37;;;;;;;0.70;0.65;;;;;;;;;;5013389;28;20379;-59
2022/05/31 00:11:03;;;;;;;2.33;0.90;;;;;;;;;;5012526;28;20108;-58
2022/05/31 00:13:29;;;;;;;1.08;0.90;;;;;;;;;;5013628;28;20026;-59
2022/05/31 00:15:55;;;;;;;1.02;0.70;;;;;;;;;;5009102;28;20064;-58
2022/05/31 00:18:21;;;;;;;0.80;0.68;;;;;;;;;;5013231;28;20030;-58
2022/05/31 00:20:47;;;;;;;1.52;0.82;;;;;;;;;;5008074;28;20053;-58
2022/05/31 00:23:13;;;;;;;1.58;1.10;;;;;;;;;;5012575;28;20038;-58
2022/05/31 00:25:39;;;;;;;0.90;0.65;;;;;;;;;;5007156;28;20029;-58
2022/05/31 00:28:05;;;;;;;1.15;0.90;;;;;;;;;;5009844;28;20037;-58
2022/05/31 00:30:32;;;;;;;1.60;0.95;;;;;;;;;;5008509;28;20426;-58
2022/05/31 00:32:58;;;;;;;1.27;0.88;;;;;;;;;;5012098;28;20026;-58
2022/05/31 00:35:26;;;;;;;2.53;1.02;;;;;;;;;;5013219;28;20030;-58
2022/05/31 00:37:54;;;;;;;0.98;0.70;;;;;;;;;;5012951;28;20461;-58
2022/05/31 00:40:21;;;;;;;1.08;0.75;;;;;;;;;;5008756;28;20065;-58
2022/05/31 00:42:49;;;;;;;1.75;0.80;;;;;;;;;;5013062;28;20021;-58
2022/05/31 00:45:15;;;;;;;1.55;0.80;;;;;;;;;;5007044;28;20060;-58
2022/05/31 00:47:41;;;;;;;3.28;1.00;;;;;;;;;;5012565;28;20475;-58
2022/05/31 00:50:09;;;;;;;0.85;0.60;;;;;;;;;;5004987;28;20109;-58
2022/05/31 00:52:48;;;;;;;0.93;0.82;;;;;;;;;;5012834;28;20105;-58
2022/05/31 00:55:23;;;;;;;1.13;0.95;;;;;;;;;;5010975;28;20026;-58
2022/05/31 00:57:53;;;;;;;1.75;0.90;;;;;;;;;;5012653;28;20044;-58
2022/05/31 01:00:20;;;;;;;1.27;0.90;;;;;;;;;;5009968;28;20027;-58
2022/05/31 01:02:47;;;;;;;1.13;1.02;;;;;;;;;;5013370;28;20029;-58
2022/05/31 01:05:14;;;;;;;1.13;0.60;;;;;;;;;;5011795;28;20030;-58
2022/05/31 01:07:40;;;;;;;1.10;0.90;;;;;;;;;;5012291;28;20382;-58
2022/05/31 01:10:08;;;;;;;1.23;0.80;;;;;;;;;;5005394;28;20507;-58
2022/05/31 01:12:35;;;;;;;1.35;0.85;;;;;;;;;;5012123;28;20052;-59
2022/05/31 01:15:01;;;;;;;1.63;0.80;;;;;;;;;;5010294;28;20029;-58
2022/05/31 01:17:27;;;;;;;1.23;0.90;;;;;;;;;;5008263;28;20124;-58
2022/05/31 01:20:00;;;;;;;2.28;0.98;;;;;;;;;;5010638;28;20045;-58
2022/05/31 01:22:27;;;;;;;1.77;0.90;;;;;;;;;;5008524;28;20022;-58
2022/05/31 01:25:00;;;;;;;0.75;0.70;;;;;;;;;;5010088;28;20030;-59
2022/05/31 01:27:45;;;;;;;1.08;0.82;;;;;;;;;;5011018;28;20436;-58
2022/05/31 01:30:11;;;;;;;1.58;0.80;;;;;;;;;;5009750;28;20534;-58
2022/05/31 01:32:40;;;;;;;2.28;0.85;;;;;;;;;;5011092;28;20030;-59
2022/05/31 01:35:12;;;;;;;1.52;0.95;;;;;;;;;;5009719;28;20049;-58
2022/05/31 01:37:47;;;;;;;1.67;1.00;;;;;;;;;;5010688;28;20026;-58
2022/05/31 01:40:17;;;;;;;1.17;0.82;;;;;;;;;;5009867;28;20124;-58
2022/05/31 01:42:45;;;;;;;1.65;1.50;;;;;;;;;;5010826;28;20042;-58
2022/05/31 01:45:13;;;;;;;1.15;0.80;;;;;;;;;;5009525;28;20045;-58
2022/05/31 01:47:39;;;;;;;1.60;0.80;;;;;;;;;;5010455;28;20037;-58
2022/05/31 01:50:08;;;;;;;1.67;0.82;;;;;;;;;;5010807;28;20092;-58
2022/05/31 01:52:35;;;;;;;0.88;0.68;;;;;;;;;;5011911;28;20029;-58
2022/05/31 01:55:01;;;;;;;1.00;0.80;;;;;;;;;;5008035;28;20026;-58
2022/05/31 01:57:28;;;;;;;1.25;0.98;;;;;;;;;;5010753;28;20022;-58
2022/05/31 01:59:57;;;;;;;1.08;0.88;;;;;;;;;;5009884;28;20037;-58
2022/05/31 02:02:24;;;;;;;1.20;0.80;;;;;;;;;;5010504;28;20027;-58
2022/05/31 02:04:50;;;;;;;2.17;0.88;;;;;;;;;;5010215;28;20026;-58
2022/05/31 02:07:18;;;;;;;0.85;0.70;;;;;;;;;;5009361;28;20034;-58
2022/05/31 02:09:45;;;;;;;3.33;1.00;;;;;;;;;;5008042;28;20030;-58
2022/05/31 02:12:13;;;;;;;1.13;0.80;;;;;;;;;;5004118;28;20476;-59
2022/05/31 02:14:39;;;;;;;1.50;1.00;;;;;;;;;;5009900;28;20032;-58
2022/05/31 02:17:06;;;;;;;1.77;1.30;;;;;;;;;;4990179;28;20042;-58
2022/05/31 02:19:32;;;;;;;1.52;0.90;;;;;;;;;;5010364;28;20045;-59
2022/05/31 02:22:01;;;;;;;1.23;0.70;;;;;;;;;;5009277;28;20072;-58
2022/05/31 02:24:28;;;;;;;1.55;1.05;;;;;;;;;;5010425;28;20368;-58
2022/05/31 02:26:54;;;;;;;1.83;0.68;;;;;;;;;;5009438;28;20037;-59
2022/05/31 02:29:22;;;;;;;2.25;0.90;;;;;;;;;;5008271;28;20040;-59
2022/05/31 02:31:49;;;;;;;0.95;0.75;;;;;;;;;;5010129;28;20036;-59
2022/05/31 02:34:16;;;;;;;0.95;0.80;;;;;;;;;;5009479;28;20029;-58
2022/05/31 02:36:42;;;;;;;1.67;0.90;;;;;;;;;;5009986;28;20096;-59
2022/05/31 02:39:08;;;;;;;0.85;0.60;;;;;;;;;;5009195;28;20046;-59
2022/05/31 02:41:35;;;;;;;1.10;1.00;;;;;;;;;;5009279;28;20015;-58
2022/05/31 02:44:01;;;;;;;3.05;0.85;;;;;;;;;;5008804;28;20029;-59
2022/05/31 02:46:27;;;;;;;1.90;0.93;;;;;;;;;;5011358;28;20538;-59
2022/05/31 02:48:53;;;;;;;1.17;0.75;;;;;;;;;;5011178;28;20026;-59
2022/05/31 02:51:20;;;;;;;0.77;0.55;;;;;;;;;;5010376;28;20042;-58
2022/05/31 02:53:46;;;;;;;1.15;0.95;;;;;;;;;;5011529;28;20030;-59
2022/05/31 02:56:12;;;;;;;1.00;0.80;;;;;;;;;;5010350;28;20101;-59
2022/05/31 02:58:38;;;;;;;1.42;0.95;;;;;;;;;;5011572;28;20036;-59
2022/05/31 03:01:20;;;;;;;1.30;0.60;;;;;;;;;;5010230;28;20034;-59
2022/05/31 03:03:46;;;;;;;0.98;0.85;;;;;;;;;;5005358;28;20545;-58
2022/05/31 03:06:12;;;;;;;1.15;1.02;;;;;;;;;;5010399;28;20022;-59
2022/05/31 03:08:38;;;;;;;1.10;0.68;;;;;;;;;;5011158;28;20030;-58
2022/05/31 03:11:05;;;;;;;1.65;0.80;;;;;;;;;;5010500;28;20369;-58
2022/05/31 03:13:31;;;;;;;0.93;0.70;;;;;;;;;;5012617;28;20030;-58
2022/05/31 03:15:59;;;;;;;1.23;0.60;;;;;;;;;;5014753;28;20410;-59
2022/05/31 03:18:26;;;;;;;0.95;0.80;;;;;;;;;;5015115;28;20030;-58
2022/05/31 03:20:56;;;;;;;0.93;0.60;;;;;;;;;;5014728;28;20411;-58
2022/05/31 03:23:25;;;;;;;1.05;0.60;;;;;;;;;;5014858;28;20036;-58
2022/05/31 03:25:51;;;;;;;1.52;0.85;;;;;;;;;;5014457;28;20036;-59
2022/05/31 03:28:18;;;;;;;1.67;1.00;;;;;;;;;;5013938;28;20053;-58
2022/05/31 03:30:44;;;;;;;1.48;0.73;;;;;;;;;;5014578;28;20033;-58
2022/05/31 03:33:11;;;;;;;0.55;0.50;;;;;;;;;;5013843;28;20034;-59
2022/05/31 03:35:38;;;;;;;1.38;0.88;;;;;;;;;;5014711;28;20030;-58
2022/05/31 03:38:04;;;;;;;0.90;0.70;;;;;;;;;;5013940;28;20100;-58
2022/05/31 03:43:15;;;;;;;1.60;0.60;;;;;;;;;;5006331;28;20514;-58
2022/05/31 03:45:42;;;;;;;2.05;0.85;;;;;;;;;;5014525;28;20069;-58
2022/05/31 03:48:09;;;;;;;1.10;0.80;;;;;;;;;;5013757;28;20069;-59
2022/05/31 03:50:35;;;;;;;0.90;0.65;;;;;;;;;;5014463;28;20080;-58
2022/05/31 03:53:01;;;;;;;1.88;0.80;;;;;;;;;;5013425;28;20038;-58
2022/05/31 03:55:27;;;;;;;1.23;0.77;;;;;;;;;;5013969;28;20034;-59
2022/05/31 03:57:54;;;;;;;1.30;0.60;;;;;;;;;;5014503;28;20072;-59
2022/05/31 04:00:20;;;;;;;1.40;0.70;;;;;;;;;;5013246;28;20038;-59
2022/05/31 04:02:46;;;;;;;1.13;0.80;;;;;;;;;;5014326;28;20081;-59
2022/05/31 04:05:13;;;;;;;0.80;0.80;;;;;;;;;;5013527;28;20041;-59
2022/05/31 04:07:39;;;;;;;1.15;1.05;;;;;;;;;;5013794;28;20034;-58
2022/05/31 04:10:05;;;;;;;1.35;0.77;;;;;;;;;;5013356;28;20072;-58
2022/05/31 04:12:34;;;;;;;4.95;1.25;;;;;;;;;;5013760;28;20025;-58
2022/05/31 04:15:01;;;;;;;1.90;0.98;;;;;;;;;;5014281;28;20037;-54
2022/05/31 04:17:27;;;;;;;1.75;1.10;;;;;;;;;;5013995;28;20060;-57
2022/05/31 04:19:53;;;;;;;2.38;1.38;;;;;;;;;;5013629;28;20117;-57
2022/05/31 04:22:19;;;;;;;2.50;1.17;;;;;;;;;;5013092;28;20773;-57
2022/05/31 04:24:45;;;;;;;1.98;1.58;;;;;;;;;;5012174;28;20044;-57
2022/05/31 04:27:17;;;;;;;3.15;1.33;;;;;;;;;;5013040;28;20030;-56
2022/05/31 04:29:44;;;;;;;4.57;1.40;;;;;;;;;;5013336;28;20038;-56
2022/05/31 04:32:10;;;;;;;4.57;1.50;;;;;;;;;;5012834;28;20036;-55
2022/05/31 04:34:36;;;;;;;3.65;2.08;;;;;;;;;;5013995;28;20025;-57
2022/05/31 04:37:02;;;;;;;3.38;1.75;;;;;;;;;;5012291;28;20479;-56
2022/05/31 04:39:28;;;;;;;7.28;1.63;;;;;;;;;;5013107;28;20105;-58
2022/05/31 04:41:54;;;;;;;3.88;1.73;;;;;;;;;;5013189;28;20026;-57
2022/05/31 04:44:20;;;;;;;2.33;1.25;;;;;;;;;;5012504;28;20026;-57
2022/05/31 04:46:48;;;;;;;4.07;1.70;;;;;;;;;;5012840;28;20053;-58
2022/05/31 04:49:14;;;;;;;2.90;1.50;;;;;;;;;;5012270;28;20422;-58
2022/05/31 04:51:41;;;;;;;5.75;2.30;;;;;;;;;;5013172;28;20029;-57
2022/05/31 04:54:07;;;;;;;5.30;1.83;;;;;;;;;;5011756;28;20472;-57
2022/05/31 04:56:34;;;;;;;4.43;1.85;;;;;;;;;;5013002;28;20064;-58
2022/05/31 04:59:00;;;;;;;5.60;2.55;;;;;;;;;;5013269;28;20091;-54
2022/05/31 05:01:26;;;;;;;7.15;1.95;;;;;;;;;;5012026;28;20495;-58
2022/05/31 05:03:53;;;;;;;3.33;1.80;;;;;;;;;;5013076;28;20030;-58
2022/05/31 05:06:20;;;;;;;2.92;1.98;;;;;;;;;;5012236;28;20076;-58
2022/05/31 05:08:46;;;;;;;5.25;1.88;;;;;;;;;;5012655;28;20029;-58
2022/05/31 05:11:14;;;;;;;2.80;1.48;;;;;;;;;;4994222;28;20113;-58
2022/05/31 05:13:41;;;;;;;4.28;1.88;;;;;;;;;;5012733;28;20475;-58
2022/05/31 05:16:07;;;;;;;4.07;1.92;;;;;;;;;;5012032;28;20030;-58
2022/05/31 05:18:34;;;;;;;2.67;1.48;;;;;;;;;;5012591;28;20037;-57
2022/05/31 05:21:00;;;;;;;6.47;1.50;;;;;;;;;;5012505;28;20045;-59
2022/05/31 05:23:26;;;;;;;4.60;1.50;;;;;;;;;;5011849;28;20475;-61
2022/05/31 05:25:53;;;;;;;5.93;1.88;;;;;;;;;;5012232;28;20034;-58
2022/05/31 05:31:05;;;;;;;3.63;1.10;;;;;;;;;;5011671;28;20124;-58
2022/05/31 05:33:31;;;;;;;5.82;1.40;;;;;;;;;;5012148;28;20498;-59
2022/05/31 05:35:57;;;;;;;8.13;1.30;;;;;;;;;;5012286;28;20084;-57
2022/05/31 05:38:24;;;;;;;2.10;1.10;;;;;;;;;;5011291;28;20033;-60
2022/05/31 05:40:50;;;;;;;2.47;1.45;;;;;;;;;;5011928;28;20084;-56
2022/05/31 05:43:16;;;;;;;3.60;1.30;;;;;;;;;;5011589;28;20034;-56
2022/05/31 05:45:42;;;;;;;3.58;1.52;;;;;;;;;;5012172;28;20056;-56
2022/05/31 05:48:08;;;;;;;3.20;1.15;;;;;;;;;;5011285;28;20109;-55
2022/05/31 05:50:35;;;;;;;7.03;1.58;;;;;;;;;;5012004;28;20033;-58
2022/05/31 05:53:03;;;;;;;6.25;1.25;;;;;;;;;;5012041;28;20052;-59
2022/05/31 05:55:29;;;;;;;7.88;1.50;;;;;;;;;;5011153;28;20091;-59
2022/05/31 05:57:55;;;;;;;3.78;1.75;;;;;;;;;;5011607;28;20022;-59
2022/05/31 06:00:23;;;;;;;4.80;1.58;;;;;;;;;;5008454;28;20033;-59
2022/05/31 06:02:55;;;;;;;5.75;1.52;;;;;;;;;;4993583;28;20057;-59
2022/05/31 06:05:24;;;;;;;7.03;1.70;;;;;;;;;;5011306;28;20048;-59
2022/05/31 06:07:52;;;;;;;6.35;1.50;;;;;;;;;;5009931;28;20027;-59
2022/05/31 06:10:20;;;;;;;3.80;2.00;;;;;;;;;;5010399;28;20042;-59
2022/05/31 06:12:51;;;;;;;3.83;1.40;;;;;;;;;;5011799;28;20032;-59
2022/05/31 06:15:21;;;;;;;4.43;1.23;;;;;;;;;;5010296;28;20084;-59
2022/05/31 06:17:48;;;;;;;5.45;1.92;;;;;;;;;;5009695;28;20037;-59
2022/05/31 06:20:16;;;;;;;4.25;1.40;;;;;;;;;;5003813;28;20026;-59
2022/05/31 06:22:42;;;;;;;4.18;1.95;;;;;;;;;;5000068;28;20025;-58
2022/05/31 06:25:09;;;;;;;2.85;1.63;;;;;;;;;;5012675;28;20145;-59
2022/05/31 06:27:35;;;;;;;3.20;1.52;;;;;;;;;;5011101;28;20041;-57
2022/05/31 06:30:01;;;;;;;3.30;1.13;;;;;;;;;;5011597;28;20030;-59
2022/05/31 06:32:27;;;;;;;3.85;1.33;;;;;;;;;;5010482;28;20105;-59
2022/05/31 06:34:53;;;;;;;2.80;1.35;;;;;;;;;;5011529;28;20029;-58
2022/05/31 06:37:19;;;;;;;7.88;2.35;;;;;;;;;;5010653;28;20045;-59
2022/05/31 06:39:46;;;;;;;3.05;1.52;;;;;;;;;;5011244;28;20356;-58
2022/05/31 06:42:13;;;;;;;8.50;2.08;;;;;;;;;;5010656;28;20018;-59
2022/05/31 06:44:41;;;;;;;7.13;2.00;;;;;;;;;;5010501;28;20460;-59
2022/05/31 06:47:08;;;;;;;5.63;1.52;;;;;;;;;;5010542;28;20060;-59
2022/05/31 06:49:34;;;;;;;3.00;1.60;;;;;;;;;;5013638;28;20057;-58
2022/05/31 06:57:31;;;;;;;3.08;1.50;;;;;;;;;;5013718;28;20033;-58
2022/05/31 06:59:57;;;;;;;4.63;2.00;;;;;;;;;;5015213;28;20057;-58
2022/05/31 07:02:23;;;;;;;3.72;1.80;;;;;;;;;;5014002;28;20058;-61
2022/05/31 07:04:49;;;;;;;3.63;1.83;;;;;;;;;;5013264;28;20546;-59
2022/05/31 07:07:15;;;;;;;5.50;1.92;;;;;;;;;;5007725;28;20053;-58
2022/05/31 07:09:41;;;;;;;2.65;1.30;;;;;;;;;;5014733;28;20479;-58
2022/05/31 07:12:07;;;;;;;6.20;2.35;;;;;;;;;;5012942;28;20034;-59
2022/05/31 07:14:33;;;;;;;4.63;1.70;;;;;;;;;;5011024;28;20036;-58
2022/05/31 07:16:59;;;;;;;3.08;1.60;;;;;;;;;;5013044;28;20026;-59
2022/05/31 07:19:25;;;;;;;4.43;1.73;;;;;;;;;;5008238;28;20034;-58
2022/05/31 07:21:52;;;;;;;4.30;1.83;;;;;;;;;;5014428;28;20036;-58
2022/05/31 07:24:18;;;;;;;2.22;1.58;;;;;;;;;;5013224;28;20024;-58
2022/05/31 07:26:44;;;;;;;4.47;1.55;;;;;;;;;;5013998;28;20038;-58
2022/05/31 07:29:10;;;;;;;4.40;1.70;;;;;;;;;;5011752;28;20013;-59
2022/05/31 07:31:37;;;;;;;3.63;1.40;;;;;;;;;;5011954;28;20069;-59
2022/05/31 07:34:03;;;;;;;2.78;1.48;;;;;;;;;;5013530;28;20084;-58
2022/05/31 07:36:29;;;;;;;2.83;1.33;;;;;;;;;;5012510;28;20271;-58
2022/05/31 07:38:55;;;;;;;3.85;1.40;;;;;;;;;;5013299;28;20030;-58
2022/05/31 07:41:21;;;;;;;3.63;1.38;;;;;;;;;;5012704;28;20033;-58
2022/05/31 07:43:47;;;;;;;2.92;1.48;;;;;;;;;;5010201;28;20037;-58
2022/05/31 07:46:13;;;;;;;2.05;1.00;;;;;;;;;;5012565;28;20073;-59
2022/05/31 07:48:39;;;;;;;4.38;1.50;;;;;;;;;;5013487;28;20038;-58
2022/05/31 07:51:06;;;;;;;4.55;1.75;;;;;;;;;;5013290;28;20026;-58
2022/05/31 07:53:32;;;;;;;4.20;1.48;;;;;;;;;;5012948;28;20033;-58
2022/05/31 07:56:06;;;;;;;3.83;1.52;;;;;;;;;;5013495;28;20133;-58
2022/05/31 07:58:33;;;;;;;2.80;1.48;;;;;;;;;;5012507;28;20034;-58
2022/05/31 08:01:00;;;;;;;3.28;1.10;;;;;;;;;;5005889;28;20104;-58
2022/05/31 08:03:26;;;;;;;2.58;1.52;;;;;;;;;;5012671;28;20026;-58
2022/05/31 08:05:52;;;;;;;5.13;1.80;;;;;;;;;;5013205;28;20030;-59
2022/05/31 08:08:18;;;;;;;2.38;1.40;;;;;;;;;;5012179;28;20216;-59
2022/05/31 08:10:44;;;;;;;2.15;1.23;;;;;;;;;;4993455;28;20467;-59
2022/05/31 08:13:10;;;;;;;4.93;1.52;;;;;;;;;;4990910;28;20036;-59
2022/05/31 08:15:36;;;;;;;4.18;1.92;;;;;;;;;;5000844;28;20026;-59
2022/05/31 08:18:02;;;;;;;4.82;2.03;;;;;;;;;;5009913;28;20038;-58
2022/05/31 08:20:28;;;;;;;4.25;1.25;;;;;;;;;;5003495;28;20031;-58
2022/05/31 08:22:54;;;;;;;3.53;1.30;;;;;;;;;;5005549;28;20026;-58
2022/05/31 08:25:20;;;;;;;4.55;1.55;;;;;;;;;;5011309;28;20379;-59
2022/05/31 08:27:46;;;;;;;3.03;0.95;;;;;;;;;;5008082;28;20025;-58
2022/05/31 08:30:12;;;;;;;5.97;1.13;;;;;;;;;;5012057;28;20502;-58
2022/05/31 08:32:38;;;;;;;3.38;1.38;;;;;;;;;;5006663;28;20383;-58
2022/05/31 08:35:05;;;;;;;2.53;0.98;;;;;;;;;;5008132;28;20027;-58
2022/05/31 08:37:31;;;;;;;4.68;1.30;;;;;;;;;;5009658;28;20854;-58
2022/05/31 08:39:58;;;;;;;5.32;2.13;;;;;;;;;;5012835;28;20083;-58
2022/05/31 08:42:32;;;;;;;2.97;1.35;;;;;;;;;;5011760;28;20471;-58
2022/05/31 08:45:04;;;;;;;5.30;1.23;;;;;;;;;;5011177;28;20026;-58
2022/05/31 08:47:46;;;;;;;3.45;1.23;;;;;;;;;;5011120;28;20672;-58
2022/05/31 08:53:11;;;;;;;1.30;0.98;;;;;;;;;;5012115;28;20080;-58
2022/05/31 08:58:29;;;;;;;1.58;0.90;;;;;;;;;;5009546;28;20029;-58
2022/05/31 09:00:57;;;;;;;4.07;1.65;;;;;;;;;;5008067;28;20038;-58
2022/05/31 09:03:41;;;;;;;2.28;1.35;;;;;;;;;;5007115;28;20060;-58
2022/05/31 09:06:09;;;;;;;2.30;0.90;;;;;;;;;;5011078;28;20029;-58
2022/05/31 09:08:44;;;;;;;3.85;1.08;;;;;;;;;;5009956;28;20026;-58
2022/05/31 09:11:16;;;;;;;1.25;0.88;;;;;;;;;;4997091;28;20065;-58
2022/05/31 09:13:49;;;;;;;3.45;0.98;;;;;;;;;;5006450;28;20110;-58
2022/05/31 09:16:34;;;;;;;1.77;1.00;;;;;;;;;;5001296;28;20073;-59
2022/05/31 09:19:03;;;;;;;1.80;1.13;;;;;;;;;;5011419;28;20040;-58
2022/05/31 09:21:41;;;;;;;3.38;1.00;;;;;;;;;;5009882;28;20026;-58
2022/05/31 09:24:17;;;;;;;2.72;0.98;;;;;;;;;;5011795;28;20026;-58
2022/05/31 09:26:51;;;;;;;2.08;0.93;;;;;;;;;;5008306;28;20028;-58
2022/05/31 09:29:33;;;;;;;4.10;1.27;;;;;;;;;;5010091;28;20506;-59
2022/05/31 09:32:00;;;;;;;;;;;;;;;;;;5009192;28;20049;-58
2022/05/31 09:34:44;;;;;;;2.53;0.93;;;;;;;;;;5011167;28;19909;-58
2022/05/31 09:37:29;;;;;;;7.15;0.95;;;;;;;;;;5010233;28;20034;-58
2022/05/31 09:39:58;;;;;;;2.38;1.13;;;;;;;;;;5011794;28;20030;-58
2022/05/31 09:42:25;;;;;;;3.47;0.90;;;;;;;;;;5010814;28;20034;-58
2022/05/31 09:45:06;;;;;;;3.00;1.17;;;;;;;;;;5006735;28;20563;-58
2022/05/31 09:47:32;;;;;;;2.15;0.70;;;;;;;;;;4999561;28;20660;-58
2022/05/31 09:49:58;;;;;;;2.42;1.08;;;;;;;;;;4996579;28;20121;-58
2022/05/31 09:52:47;;;;;;;2.70;1.23;;;;;;;;;;4995823;28;20030;-58
2022/05/31 09:58:16;;;;;;;1.25;0.90;;;;;;;;;;4996525;28;20041;-58
2022/05/31 10:00:58;;;;;;;1.88;0.90;;;;;;;;;;4987532;28;20037;-58
2022/05/31 10:03:33;;;;;;;2.50;1.02;;;;;;;;;;5001676;28;20056;-58
2022/05/31 10:06:11;;;;;;;1.55;0.70;;;;;;;;;;5010523;28;20489;-58
2022/05/31 10:08:37;;;;;;;2.45;1.08;;;;;;;;;;5010691;28;20030;-58
2022/05/31 10:11:24;;;;;;;2.28;0.98;;;;;;;;;;4996452;28;20866;-58
2022/05/31 10:13:58;;;;;;;2.15;1.30;;;;;;;;;;5011454;28;20022;-58
2022/05/31 10:16:26;;;;;;;2.38;1.10;;;;;;;;;;5011243;28;20034;-58
2022/05/31 10:18:53;;;;;;;2.30;1.20;;;;;;;;;;5005116;28;20022;-59
2022/05/31 10:21:30;;;;;;;2.03;1.10;;;;;;;;;;5012124;28;20129;-58
2022/05/31 10:24:00;;;;;;;3.28;1.30;;;;;;;;;;5011934;28;20026;-58
2022/05/31 10:26:32;;;;;;;1.45;0.85;;;;;;;;;;5010769;28;20040;-58
2022/05/31 10:29:06;;;;;;;2.40;0.98;;;;;;;;;;5011416;28;20029;-58
2022/05/31 10:31:40;;;;;;;1.95;0.90;;;;;;;;;;5010590;28;20108;-59
2022/05/31 10:34:26;;;;;;;1.15;0.88;;;;;;;;;;5010981;28;20037;-59
2022/05/31 10:36:53;;;;;;;1.55;0.95;;;;;;;;;;4997033;28;20133;-58
2022/05/31 10:39:22;;;;;;;1.77;1.13;;;;;;;;;;5010495;28;20030;-58
2022/05/31 10:41:49;;;;;;;1.50;1.00;;;;;;;;;;5011495;28;20029;-59
2022/05/31 10:44:18;;;;;;;3.03;0.98;;;;;;;;;;5010078;28;20026;-59
2022/05/31 10:46:46;;;;;;;1.35;0.90;;;;;;;;;;5005209;28;20133;-59
2022/05/31 10:49:17;;;;;;;3.05;1.10;;;;;;;;;;5010937;28;20064;-59
2022/05/31 10:51:43;;;;;;;2.60;0.97;;;;;;;;;;5011564;28;20033;-59
2022/05/31 10:54:18;;;;;;;3.60;0.85;;;;;;;;;;5011150;28;20042;-59
2022/05/31 10:57:10;;;;;;;2.28;0.80;;;;;;;;;;5010874;28;20045;-59
2022/05/31 10:59:46;;;;;;;2.33;0.90;;;;;;;;;;4976955;28;20072;-59
2022/05/31 11:02:29;;;;;;;1.90;1.30;;;;;;;;;;4992138;28;20034;-59
2022/05/31 11:04:56;;;;;;;3.08;1.13;;;;;;;;;;5011391;28;20018;-59
2022/05/31 11:07:29;;;;;;;3.65;0.98;;;;;;;;;;5010181;28;20034;-59
2022/05/31 11:12:59;;;;;;;2.15;0.82;;;;;;;;;;5010637;28;20454;-59
2022/05/31 11:15:26;;;;;;;3.17;0.77;;;;;;;;;;5009050;28;20383;-59
2022/05/31 11:18:10;;;;;;;3.65;1.42;;;;;;;;;;5008274;28;20042;-59
2022/05/31 11:20:44;;;;;;;2.63;1.08;;;;;;;;;;5010123;28;20041;-59
2022/05/31 11:23:29;;;;;;;4.18;1.20;;;;;;;;;;5010685;28;20562;-59
2022/05/31 11:25:58;;;;;;;2.55;1.20;;;;;;;;;;5010598;28;20376;-59
2022/05/31 11:28:43;;;;;;;1.67;0.95;;;;;;;;;;5009828;28;20026;-59
2022/05/31 11:31:17;;;;;;;1.52;0.80;;;;;;;;;;5010535;28;20046;-59
2022/05/31 11:33:51;;;;;;;1.98;1.00;;;;;;;;;;5010919;28;20498;-59
2022/05/31 11:36:18;;;;;;;3.42;1.48;;;;;;;;;;5013227;28;20157;-59
2022/05/31 11:38:46;;;;;;;2.58;1.05;;;;;;;;;;5014515;28;20080;-59
2022/05/31 11:41:12;;;;;;;1.63;1.08;;;;;;;;;;5014387;28;20062;-59
2022/05/31 11:43:40;;;;;;;1.70;0.90;;;;;;;;;;5013538;28;20452;-59
2022/05/31 11:46:09;;;;;;;1.08;0.82;;;;;;;;;;5012665;28;20398;-59
2022/05/31 11:48:35;;;;;;;2.25;1.13;;;;;;;;;;5013471;28;20025;-59
2022/05/31 11:51:20;;;;;;;1.90;0.80;;;;;;;;;;5013468;28;20045;-59
2022/05/31 11:53:51;;;;;;;1.17;0.93;;;;;;;;;;5004269;28;20062;-59
2022/05/31 11:56:25;;;;;;;1.70;0.90;;;;;;;;;;5013021;28;20446;-59
2022/05/31 11:58:54;;;;;;;1.95;0.77;;;;;;;;;;5013876;28;20036;-59
2022/05/31 12:01:31;;;;;;;2.20;0.80;;;;;;;;;;5008143;28;20044;-59
2022/05/31 12:04:07;;;;;;;1.38;1.00;;;;;;;;;;5015455;28;20141;-59
2022/05/31 12:06:43;;;;;;;2.85;1.13;;;;;;;;;;5014347;28;20034;-59
2022/05/31 12:09:15;;;;;;;1.85;0.90;;;;;;;;;;5007437;28;20029;-59
2022/05/31 12:11:41;;;;;;;;;;;;;;;;;;5013908;28;20026;-59
2022/05/31 12:14:10;;;;;;;3.35;1.05;;;;;;;;;;5013615;28;19913;-59
2022/05/31 12:16:36;;;;;;;0.80;0.70;;;;;;;;;;5006119;28;20258;-59
2022/05/31 12:19:11;;;;;;;1.23;0.70;;;;;;;;;;5011630;28;20026;-59
2022/05/31 12:21:40;;;;;;;1.75;1.23;;;;;;;;;;5012719;28;20038;-59
2022/05/31 12:24:10;;;;;;;1.73;0.80;;;;;;;;;;5012376;28;20036;-59
2022/05/31 12:26:48;;;;;;;1.70;0.75;;;;;;;;;;5012652;28;20678;-59
2022/05/31 12:29:31;;;;;;;1.35;0.70;;;;;;;;;;5011779;28;20030;-59
2022/05/31 12:32:16;;;;;;;1.70;0.85;;;;;;;;;;5007928;28;20038;-59
2022/05/31 12:34:42;;;;;;;1.70;0.80;;;;;;;;;;5012464;28;20034;-59
2022/05/31 12:37:11;;;;;;;0.90;0.80;;;;;;;;;;5013334;28;20022;-59
2022/05/31 12:39:38;;;;;;;1.73;0.70;;;;;;;;;;5012018;28;20029;-59
2022/05/31 12:42:13;;;;;;;1.77;1.00;;;;;;;;;;5012909;28;20030;-58
2022/05/31 12:44:40;;;;;;;3.13;0.88;;;;;;;;;;5012575;28;20104;-59
2022/05/31 12:47:24;;;;;;;1.50;0.95;;;;;;;;;;5010755;28;20050;-59
2022/05/31 12:50:02;;;;;;;1.63;1.05;;;;;;;;;;5012744;28;20030;-59
2022/05/31 12:52:37;;;;;;;2.22;0.70;;;;;;;;;;5012244;28;20057;-59
2022/05/31 12:55:04;;;;;;;1.15;0.82;;;;;;;;;;5012446;28;20030;-59
2022/05/31 13:00:42;;;;;;;1.92;0.98;;;;;;;;;;4970958;28;20049;-59
2022/05/31 13:03:27;;;;;;;3.05;0.85;;;;;;;;;;5009092;28;20026;-59
2022/05/31 13:05:59;;;;;;;2.45;0.68;;;;;;;;;;5005437;28;20084;-58
2022/05/31 13:08:44;;;;;;;2.33;1.10;;;;;;;;;;5011084;28;20026;-58
2022/05/31 13:19:41;;;;;;;2.75;0.80;;;;;;;;;;5011208;28;20029;-58
2022/05/31 13:22:09;;;;;;;1.42;0.80;;;;;;;;;;5012230;28;20471;-58
2022/05/31 13:24:47;;;;;;;2.30;0.80;;;;;;;;;;5011368;28;20033;-58
2022/05/31 13:27:16;;;;;;;0.95;0.60;;;;;;;;;;5006886;28;20022;-58
2022/05/31 13:29:43;;;;;;;1.95;0.88;;;;;;;;;;5011762;28;20026;-58
2022/05/31 13:32:10;;;;;;;1.30;0.70;;;;;;;;;;5011852;28;20144;-58
2022/05/31 13:34:38;;;;;;;1.65;0.60;;;;;;;;;;5011091;28;20032;-58
2022/05/31 13:37:14;;;;;;;2.25;0.77;;;;;;;;;;5011844;28;20049;-60
2022/05/31 13:39:42;;;;;;;1.35;0.60;;;;;;;;;;5011243;28;20033;-60
2022/05/31 13:42:16;;;;;;;2.55;1.10;;;;;;;;;;5012136;28;20430;-60
2022/05/31 13:44:42;;;;;;;2.90;1.08;;;;;;;;;;5010959;28;20026;-60
2022/05/31 13:47:11;;;;;;;1.17;0.88;;;;;;;;;;5011139;28;20121;-60
2022/05/31 13:49:39;;;;;;;3.03;0.80;;;;;;;;;;5010452;28;20608;-60
2022/05/31 13:52:25;;;;;;;2.50;0.95;;;;;;;;;;5011661;28;20108;-60
2022/05/31 13:54:53;;;;;;;0.95;0.63;;;;;;;;;;5004274;28;20434;-60
2022/05/31 13:57:23;;;;;;;2.78;0.88;;;;;;;;;;5010891;28;20038;-60
2022/05/31 13:59:51;;;;;;;2.05;0.80;;;;;;;;;;5011211;28;20053;-60
2022/05/31 14:02:20;;;;;;;1.48;0.80;;;;;;;;;;5005686;28;21929;-60
2022/05/31 14:04:53;;;;;;;3.92;1.02;;;;;;;;;;5007612;28;20030;-59
2022/05/31 14:07:20;;;;;;;2.17;0.95;;;;;;;;;;5011121;28;20033;-59
2022/05/31 14:09:58;;;;;;;2.25;0.80;;;;;;;;;;5011534;28;20025;-59
2022/05/31 14:12:25;;;;;;;2.78;0.88;;;;;;;;;;4998385;28;20499;-60
2022/05/31 14:14:52;;;;;;;4.53;1.10;;;;;;;;;;4995952;28;20033;-60
2022/05/31 14:17:36;;;;;;;3.88;1.17;;;;;;;;;;4994865;28;20045;-59
2022/05/31 14:20:04;;;;;;;2.38;0.77;;;;;;;;;;4996696;28;20041;-59
2022/05/31 14:22:34;;;;;;;3.78;1.27;;;;;;;;;;4994025;28;20064;-60
2022/05/31 14:25:02;;;;;;;2.80;1.02;;;;;;;;;;4994855;28;20026;-59
2022/05/31 14:27:28;;;;;;;1.70;0.77;;;;;;;;;;4994076;28;20399;-59
2022/05/31 14:29:58;;;;;;;3.88;0.82;;;;;;;;;;5003270;28;20076;-60
2022/05/31 14:32:29;;;;;;;6.22;1.00;;;;;;;;;;5001345;28;20037;-60
2022/05/31 14:34:55;;;;;;;2.25;0.80;;;;;;;;;;5002883;28;20029;-59
2022/05/31 14:37:35;;;;;;;3.05;0.80;;;;;;;;;;5009322;28;20049;-59
2022/05/31 14:40:04;;;;;;;9.98;1.40;;;;;;;;;;5010622;28;20033;-59
2022/05/31 14:42:38;;;;;;;2.30;0.93;;;;;;;;;;5006755;28;20029;-59
2022/05/31 14:45:07;;;;;;;3.40;0.80;;;;;;;;;;5008669;28;20375;-58
2022/05/31 14:47:36;;;;;;;4.07;1.30;;;;;;;;;;5009010;28;20050;-60
2022/05/31 14:50:05;;;;;;;3.45;0.80;;;;;;;;;;5010672;28;20038;-60
2022/05/31 14:52:51;;;;;;;1.45;0.88;;;;;;;;;;5003134;28;20414;-60
2022/05/31 14:55:20;;;;;;;3.15;1.13;;;;;;;;;;5010798;28;20022;-60
2022/05/31 15:00:38;;;;;;;2.70;1.02;;;;;;;;;;5010056;28;20034;-59
2022/05/31 15:03:23;;;;;;;2.00;0.70;;;;;;;;;;5011127;28;20022;-60
2022/05/31 15:05:56;;;;;;;2.10;1.00;;;;;;;;;;5010605;28;20026;-59
2022/05/31 15:08:30;;;;;;;2.53;0.85;;;;;;;;;;5002179;28;20029;-59
2022/05/31 15:18:56;;;;;;;2.05;0.98;;;;;;;;;;5014881;28;20030;-60
2022/05/31 15:19:10;;;;;;;1.10;0.60;;;;;;;;;;5014574;28;20037;-59
2022/05/31 15:21:38;;;;;;;2.35;0.70;;;;;;;;;;5013702;28;20029;-59
2022/05/31 15:24:26;;;;;;;5.78;0.90;;;;;;;;;;5014386;28;20029;-59
2022/05/31 15:26:52;;;;;;;4.32;0.90;;;;;;;;;;5004289;28;20072;-59
2022/05/31 15:29:20;;;;;;;1.55;1.00;;;;;;;;;;5014901;28;20106;-59
2022/05/31 15:31:46;;;;;;;2.05;1.38;;;;;;;;;;5014239;28;20030;-59
2022/05/31 15:34:12;;;;;;;3.15;1.00;;;;;;;;;;5014002;28;20108;-59
2022/05/31 15:36:41;;;;;;;2.88;0.90;;;;;;;;;;5013566;28;20022;-59
2022/05/31 15:39:09;;;;;;;1.33;0.90;;;;;;;;;;5014154;28;20475;-59